Aérodrome :
LOGIN :

S'inscrire | Disclaimer

   EN    FR    IT 

 










Légende :    VFR   VFR Marginal   IFR   IFR Intensif   IFR Très Intensif
Visi : 
Plafond : 
>= 8 km
>= 3000ft
5 à 8 km
1000 à 3000 ft
1500m à 5 km
500 à 1000 ft
800 à 1500m
200 à 500 ft
< 800m
< 200 ft
Symboles :   Orages  Brouillard  Fortes neiges  Fortes précipitations  Vent > 20 kt
SIGMETs :   Divers  Orages  Givrage  Turbulence  Onde Orograph.  Cendres Volcan.







- Altitude de l'aérodrome : 3 ft
- Code IATA : DHR


EHKD - Den Helder De Kooy

DERNIER METAR :
  • 141255Z AUTO 25015KT 9999 -UP SCT021 BKN030 BKN041 06/02 Q0988 WHT 25013KT 9999 SCT020 BKN030 TEMPO 26015G25KT SCT012 BKN018CB

METARs EXPIRÉS :
  • 141225Z AUTO 27013KT 9999 FEW021 SCT220 06/02 Q0988 BLU 25013KT 9999 SCT020 BKN030 TEMPO 26015G25KT SCT012 BKN018CB
  • 141213Z AUTO 27012KT 9999 FEW021 SCT024 BKN035 06/02 Q0988 WHT 25013KT 9999 SCT020 BKN030 TEMPO 26015G25KT SCT012 BKN018CB
  • 141159Z AUTO 27016KT 240V310 9999 FEW017 SCT028 BKN048 06/03 Q0988 BLU 25013KT 9999 SCT020 BKN030 TEMPO 26015G25KT SCT012 BKN018CB
  • 141155Z AUTO 27018KT 230V300 9999 FEW017 BKN021 BKN025 06/03 Q0988 WHT 25013KT 9999 SCT020 BKN030 TEMPO 26015G25KT SCT012 BKN018CB
  • 141136Z AUTO 27017KT 9999 SCT021 SCT025 BKN028 06/02 Q0988 WHT 25013KT 9999 SCT020 BKN030 TEMPO 26015G25KT SCT012 BKN018CB
  • 141125Z AUTO 26015KT 230V290 9999 SCT021 BKN027 BKN038 06/02 Q0988 WHT 24013KT 9999 SCT020 BKN030 TEMPO 26015G25KT SCT012 BKN018CB
  • 141116Z AUTO 27013KT 9999 SCT021 SCT027 BKN034 06/02 Q0988 WHT 24013KT 9999 SCT020 BKN030 TEMPO 26015G25KT SCT012 BKN018CB
  • 141101Z AUTO 25016G29KT 9999 FEW002 SCT025 BKN029 05/01 Q0988 BLU 24013KT 9999 SCT020 BKN030 TEMPO 26015G25KT SCT012 BKN018CB
  • 141057Z AUTO 25018G29KT 220V280 9999 -UP FEW002 SCT023 BKN027 05/01 Q0988 WHT 24013KT 9999 SCT020 BKN030 TEMPO 26015G25KT SCT012 BKN018CB
  • 141037Z AUTO 25016KT 220V280 9999 FEW026 SCT031 05/02 Q0988 BLU 24013KT 9999 SCT020 BKN030 TEMPO 26015G25KT SCT012 BKN018CB
  • 141036Z AUTO 26016KT 220V280 9999 FEW022 SCT026 BKN029 05/02 Q0988 BLU 26015G25KT 9999 SCT020 BKN030 TEMPO 27020G30KT SCT012 BKN018CB
  • 141025Z AUTO 27015KT 9999 FEW025 SCT033 05/01 Q0988 BLU 26015G25KT 9999 SCT020 BKN030 TEMPO 27020G30KT SCT012 BKN018CB

TAF TAF EHKD
Valide du 14 à 10h jusqu'au 14 à 22h UTC


140911Z 1410/1422 27015G25KT 9999 SCT020 BKN030
TEMPO 1410/1412 28018G30KT 4500 SHRA SHGS FEW008 SCT012 BKN018CB
TEMPO 1412/1418 SCT015 SCT020CB BKN025
BECMG 1414/1416 23013KT
Pas de NOTAMs connus pour ce terrain.



MET'MAP, la Météo Aéronautique d'un coup d'oeil ! - Copyright ORBIFLY Décembre 2007 - Disclaimer

ORBIFLY MET'MAP TEAM :

Programmation & Développement : Alexandra Zaïnal
Conception & Développement : Baudouin d'Aumeries
Co-Programmation & Développement : Marc-Olivier Méhu
Soutien technique & logistique : Manuel Goepfert

Contact : metmap@orbifly.com




SOURCES & CREDITS :

   NOAA